Cookies

¿Aceptas nuestras cookies?

Aceptar
VAM | Vabird-VBD

Virtual Vabird! Aerolínea Virtual de habla hispana, desde 2011




 INFORMACIÓN METAR y TAF
METAR FOR LEAM
ADDS - METARS form results

(1126 UTC 24 October 2021)
Data provider http://aviationweather.gov/metar/data/
 
METAR text: LEAM 241100Z 19006KT 160V230 9999 FEW040 22/15 Q1023
Conditions at: LEAM (ALMERIA AIRPORT , ES) observed 1100 UTC 24 October 2021
Temperature: 22.0°C (72°F)
Dewpoint: 15.0°C (59°F) [RH = 65%]
Pressure (altimeter): 30.21 inches Hg (1023.0 mb)
Winds: from the S (190 degrees) at 7 MPH (6 knots; 3.1 m/s)
Visibility: 6 or more miles (10+ km)
Ceiling: at least 12,000 feet AGL
Clouds: few clouds at 4000 feet AGL
Weather: no significant weather observed at this time

METAR text: LEAM 241030Z 18004KT 150V230 9999 FEW040 22/15 Q1023
Conditions at: LEAM (ALMERIA AIRPORT , ES) observed 1030 UTC 24 October 2021
Temperature: 22.0°C (72°F)
Dewpoint: 15.0°C (59°F) [RH = 65%]
Pressure (altimeter): 30.21 inches Hg (1023.0 mb)
Winds: from the S (180 degrees) at 5 MPH (4 knots; 2.1 m/s)
Visibility: 6 or more miles (10+ km)
Ceiling: at least 12,000 feet AGL
Clouds: few clouds at 4000 feet AGL
Weather: no significant weather observed at this time

Forecast for: LEAM (ALMERIA AIRPORT , ES)
Text: TAF LEAM 240500Z 2406/2506 34010KT 9999 FEW040 TX23/2412Z TN16/2406Z
Forecast period: 0600 to 0900 UTC 24 October 2021
Forecast type: FROM: standard forecast or significant change
Winds: from the NNW (340 degrees) at 12 MPH (10 knots; 5.1 m/s)
Visibility: 6 or more miles (10+ km)
Ceiling: at least 12,000 feet AGL
Clouds: few clouds at 4000 feet AGL
Weather: no significant weather forecast for this period
Text: BECMG 2409/2411 17006KT
Forecast period: 0900 to 2000 UTC 24 October 2021
Forecast type: BECOMING: Conditions expected to become as follows by 1100 UTC 24 October 2021
Winds: from the S (170 degrees) at 7 MPH (6 knots; 3.1 m/s)
Visibility: 6 or more miles (10+ km)
Ceiling: at least 12,000 feet AGL
Clouds: few clouds at 4000 feet AGL
Weather: no significant weather forecast for this period
Text: BECMG 2420/2423 35010KT
Forecast period: 2000 UTC 24 October 2021 to 0600 UTC 25 October 2021
Forecast type: BECOMING: Conditions expected to become as follows by 2300 UTC 24 October 2021
Winds: from the N (350 degrees) at 12 MPH (10 knots; 5.1 m/s)
Visibility: 6 or more miles (10+ km)
Ceiling: at least 12,000 feet AGL
Clouds: few clouds at 4000 feet AGL
Weather: no significant weather forecast for this period

 MAPA DE AEROPUERTO

 INFORMACIÓN DE PISTA